createdAt,value
2023-05-04T00:01:25.716Z,66.46
2023-05-04T00:03:52.668Z,67.73
2023-05-04T00:06:19.276Z,68.54
2023-05-04T00:08:45.980Z,68.37
2023-05-04T00:11:12.562Z,67.60
2023-05-04T00:13:39.011Z,67.28
2023-05-04T00:16:05.598Z,67.04
2023-05-04T00:18:32.096Z,67.28
2023-05-04T00:20:58.511Z,66.91
2023-05-04T00:23:24.896Z,67.29
2023-05-04T00:25:51.350Z,67.29
2023-05-04T00:28:17.758Z,67.31
2023-05-04T00:30:44.255Z,67.07
2023-05-04T00:33:10.988Z,67.10
2023-05-04T00:35:37.487Z,66.07
2023-05-04T00:38:05.456Z,66.59
2023-05-04T00:40:31.907Z,65.66
2023-05-04T00:42:58.347Z,65.23
2023-05-04T00:45:24.911Z,65.58
2023-05-04T00:47:51.567Z,65.20
2023-05-04T00:50:18.383Z,66.06
2023-05-04T00:52:46.811Z,66.49
2023-05-04T00:55:14.421Z,65.22
2023-05-04T00:57:41.627Z,65.01
2023-05-04T01:00:08.660Z,65.10
2023-05-04T01:02:35.095Z,65.98
2023-05-04T01:05:02.673Z,66.46
2023-05-04T01:07:38.184Z,66.62
2023-05-04T01:10:14.373Z,65.70
2023-05-04T01:12:44.985Z,65.72
2023-05-04T01:15:12.344Z,66.15
2023-05-04T01:17:39.163Z,66.35
2023-05-04T01:20:06.648Z,67.19
2023-05-04T01:22:34.806Z,67.91
2023-05-04T01:25:01.316Z,67.26
2023-05-04T01:27:57.033Z,67.59
2023-05-04T01:30:35.544Z,67.38
2023-05-04T01:33:02.978Z,67.28
2023-05-04T01:35:30.031Z,67.59
2023-05-04T01:37:56.574Z,67.58
2023-05-04T01:40:23.023Z,66.87
2023-05-04T01:42:49.521Z,67.05
2023-05-04T01:45:15.953Z,67.03
2023-05-04T01:47:42.507Z,66.96
2023-05-04T01:50:09.279Z,66.63
2023-05-04T01:52:35.747Z,66.83
2023-05-04T01:55:02.171Z,67.37
2023-05-04T01:57:28.637Z,67.69
2023-05-04T01:59:55.122Z,67.85
2023-05-04T02:02:21.577Z,67.70
2023-05-04T02:04:48.037Z,67.04
2023-05-04T02:07:14.663Z,67.15
2023-05-04T02:09:42.522Z,67.21
2023-05-04T02:12:09.424Z,66.80
2023-05-04T02:14:36.448Z,66.38
2023-05-04T02:17:03.891Z,66.35
2023-05-04T02:19:30.681Z,66.79
2023-05-04T02:21:57.113Z,67.21
2023-05-04T02:24:23.555Z,67.65
2023-05-04T02:26:50.000Z,69.00
2023-05-04T02:29:16.425Z,67.95
2023-05-04T02:31:43.005Z,67.98
2023-05-04T02:34:09.515Z,67.99
2023-05-04T02:36:41.066Z,68.38
2023-05-04T02:39:08.168Z,68.59
2023-05-04T02:41:34.636Z,69.30
2023-05-04T02:44:01.234Z,69.70
2023-05-04T02:46:27.731Z,69.58
2023-05-04T02:48:54.147Z,69.72
2023-05-04T02:51:20.643Z,70.23
2023-05-04T02:53:47.092Z,70.33
2023-05-04T02:56:13.564Z,70.52
2023-05-04T02:58:39.984Z,70.28
2023-05-04T03:01:06.460Z,69.83
2023-05-04T03:03:32.968Z,70.43
2023-05-04T03:05:59.403Z,70.05
2023-05-04T03:08:25.849Z,70.08
2023-05-04T03:10:52.322Z,70.00
2023-05-04T03:13:18.776Z,70.00
2023-05-04T03:15:45.338Z,70.17
2023-05-04T03:18:12.213Z,69.70
2023-05-04T03:20:38.747Z,69.64
2023-05-04T03:23:06.753Z,70.20
2023-05-04T03:25:33.170Z,70.12
2023-05-04T03:27:59.639Z,69.82
2023-05-04T03:30:26.204Z,70.01
2023-05-04T03:32:55.595Z,69.91
2023-05-04T03:35:24.894Z,70.59
2023-05-04T03:37:53.671Z,70.61
2023-05-04T03:40:22.917Z,70.36
2023-05-04T03:42:53.798Z,70.28
2023-05-04T03:45:23.393Z,69.77
2023-05-04T03:47:51.017Z,69.35
2023-05-04T03:50:17.475Z,69.91
2023-05-04T03:52:43.905Z,69.55
2023-05-04T03:55:12.067Z,69.45
2023-05-04T03:57:38.975Z,69.25
2023-05-04T04:00:06.597Z,69.07
2023-05-04T04:02:41.586Z,69.14
2023-05-04T04:05:10.344Z,69.41
2023-05-04T04:07:38.660Z,69.96
2023-05-04T04:10:06.232Z,69.75
2023-05-04T04:12:33.057Z,70.99
2023-05-04T04:14:59.569Z,71.86
2023-05-04T04:17:26.034Z,71.21
2023-05-04T04:19:52.486Z,71.11
2023-05-04T04:22:18.880Z,72.58
2023-05-04T04:24:45.275Z,72.82
2023-05-04T04:27:11.751Z,72.00
2023-05-04T04:29:39.514Z,71.23
2023-05-04T04:32:06.203Z,71.70
2023-05-04T04:34:32.667Z,71.19
2023-05-04T04:36:59.315Z,70.77
2023-05-04T04:39:25.780Z,70.59
2023-05-04T04:41:52.408Z,71.23
2023-05-04T04:44:19.767Z,70.78
2023-05-04T04:46:47.230Z,71.36
2023-05-04T04:49:13.833Z,71.48
2023-05-04T04:51:41.895Z,71.52
2023-05-04T04:54:08.369Z,72.23
2023-05-04T04:56:34.820Z,72.49
2023-05-04T04:59:01.243Z,71.61
2023-05-04T05:01:27.965Z,70.85
2023-05-04T05:03:54.433Z,70.27
2023-05-04T05:06:21.047Z,70.32
2023-05-04T05:08:47.523Z,70.74
2023-05-04T05:11:13.994Z,70.75
2023-05-04T05:13:40.438Z,70.05
2023-05-04T05:16:06.980Z,70.57
2023-05-04T05:18:33.468Z,70.77
2023-05-04T05:21:00.742Z,71.30
2023-05-04T05:23:27.604Z,71.84
2023-05-04T05:25:54.171Z,71.92
2023-05-04T05:28:20.630Z,71.67
2023-05-04T05:30:47.975Z,72.60
2023-05-04T05:33:14.507Z,73.61
2023-05-04T05:35:41.033Z,73.80
2023-05-04T05:38:07.675Z,73.84
2023-05-04T05:40:34.075Z,74.39
2023-05-04T05:43:00.653Z,74.87
2023-05-04T05:45:27.098Z,74.89
2023-05-04T05:47:53.709Z,74.17
2023-05-04T05:50:20.463Z,73.99
2023-05-04T05:52:46.997Z,74.17
2023-05-04T05:55:13.427Z,73.90
2023-05-04T05:57:39.857Z,74.10
2023-05-04T06:00:07.181Z,74.15
2023-05-04T06:02:38.861Z,74.08
2023-05-04T06:05:06.131Z,74.09
2023-05-04T06:07:32.659Z,73.69
2023-05-04T06:09:59.102Z,73.72
2023-05-04T06:12:25.557Z,73.98
2023-05-04T06:14:52.299Z,74.41
2023-05-04T06:17:19.120Z,74.46
2023-05-04T06:19:47.521Z,75.07
2023-05-04T06:22:15.213Z,75.98
2023-05-04T06:24:41.687Z,75.70
2023-05-04T06:27:08.673Z,75.35
2023-05-04T06:29:36.331Z,76.09
2023-05-04T06:32:03.089Z,76.76
2023-05-04T06:34:29.624Z,76.83
2023-05-04T06:36:56.636Z,76.88
2023-05-04T06:39:23.058Z,76.54
2023-05-04T06:41:49.555Z,76.08
2023-05-04T06:44:18.716Z,75.79
2023-05-04T06:46:45.838Z,75.66
2023-05-04T06:49:12.315Z,75.02
2023-05-04T06:51:39.458Z,74.95
2023-05-04T06:54:06.216Z,74.37
2023-05-04T06:56:32.816Z,74.27
2023-05-04T06:58:59.278Z,73.86
2023-05-04T07:01:26.054Z,73.05
2023-05-04T07:03:52.628Z,72.47
2023-05-04T07:06:19.289Z,72.62
2023-05-04T07:08:45.723Z,72.31
2023-05-04T07:11:12.207Z,71.66
2023-05-04T07:13:38.890Z,71.53
2023-05-04T07:16:09.253Z,71.22
2023-05-04T07:18:36.142Z,71.12
2023-05-04T07:21:21.702Z,70.53
2023-05-04T07:23:48.978Z,70.93
2023-05-04T07:26:15.492Z,70.66
2023-05-04T07:28:43.809Z,70.74
2023-05-04T07:31:12.852Z,70.33
2023-05-04T07:33:39.520Z,70.20
2023-05-04T07:36:06.730Z,70.04
2023-05-04T07:38:33.729Z,69.74
2023-05-04T07:41:00.270Z,69.76
2023-05-04T07:43:26.696Z,69.57
2023-05-04T07:45:53.838Z,68.87
2023-05-04T07:48:20.680Z,68.89
2023-05-04T07:50:47.656Z,68.58
2023-05-04T07:53:14.099Z,68.85
2023-05-04T07:55:40.725Z,68.42
2023-05-04T07:58:07.201Z,67.99
2023-05-04T08:00:33.678Z,68.04
2023-05-04T08:03:00.124Z,67.86
2023-05-04T08:05:26.620Z,67.23
2023-05-04T08:07:53.071Z,66.81
2023-05-04T08:10:19.523Z,66.82
2023-05-04T08:12:46.307Z,66.57
2023-05-04T08:15:13.835Z,66.76
2023-05-04T08:17:40.799Z,66.12
2023-05-04T08:20:08.364Z,65.72
2023-05-04T08:22:35.054Z,65.06
2023-05-04T08:25:01.752Z,64.68
2023-05-04T08:27:28.210Z,64.61
2023-05-04T08:29:57.358Z,63.88
2023-05-04T08:32:23.872Z,63.98
2023-05-04T08:34:51.743Z,63.30
2023-05-04T08:37:18.210Z,63.34
2023-05-04T08:39:44.791Z,63.59
2023-05-04T08:42:11.690Z,62.96
2023-05-04T08:44:38.449Z,63.22
2023-05-04T08:47:05.824Z,62.94
2023-05-04T08:49:32.936Z,62.90
2023-05-04T08:52:01.055Z,62.45
2023-05-04T08:54:28.869Z,62.93
2023-05-04T08:56:56.979Z,60.68
2023-05-04T08:59:25.049Z,61.77
2023-05-04T09:01:58.416Z,61.45
2023-05-04T09:04:29.345Z,62.27
2023-05-04T09:06:57.754Z,62.04
2023-05-04T09:09:28.438Z,60.78
2023-05-04T09:11:54.903Z,59.55
2023-05-04T09:14:22.736Z,60.04
2023-05-04T09:16:49.224Z,59.92
2023-05-04T09:19:20.313Z,58.20
2023-05-04T09:21:48.079Z,58.70
2023-05-04T09:24:24.824Z,57.48
2023-05-04T09:26:51.824Z,58.92
2023-05-04T09:29:18.305Z,58.92
2023-05-04T09:31:47.173Z,57.60
2023-05-04T09:34:14.904Z,57.60
2023-05-04T09:36:44.824Z,56.56
2023-05-04T09:39:12.138Z,56.03
2023-05-04T09:41:38.758Z,56.90
2023-05-04T09:44:05.266Z,58.05
2023-05-04T09:46:31.889Z,56.52
2023-05-04T09:48:58.692Z,56.20
2023-05-04T09:51:27.362Z,56.70
2023-05-04T09:53:54.311Z,56.89
2023-05-04T09:56:38.721Z,55.84
2023-05-04T09:59:05.862Z,56.31
2023-05-04T10:01:32.579Z,56.95
2023-05-04T10:03:59.118Z,56.30
2023-05-04T10:06:28.781Z,55.73
2023-05-04T10:08:56.442Z,55.59
2023-05-04T10:11:25.738Z,55.43
2023-05-04T10:13:56.809Z,56.53
2023-05-04T10:16:51.523Z,51.94
2023-05-04T10:19:39.544Z,52.79
2023-05-04T10:22:11.819Z,54.21
2023-05-04T10:25:24.965Z,54.69
2023-05-04T10:28:27.018Z,54.11
2023-05-04T10:30:58.262Z,52.72
2023-05-04T10:33:41.396Z,52.02
2023-05-04T10:36:08.969Z,52.42
2023-05-04T10:38:36.458Z,51.62
2023-05-04T10:41:19.483Z,51.21
2023-05-04T10:43:50.958Z,51.03
2023-05-04T10:46:18.874Z,49.73
2023-05-04T10:48:45.328Z,46.83
2023-05-04T10:51:23.617Z,50.75
2023-05-04T10:53:51.633Z,50.36
2023-05-04T10:56:28.357Z,49.01
2023-05-04T10:58:55.335Z,46.04
2023-05-04T11:01:22.251Z,47.97
2023-05-04T11:03:49.524Z,47.79
2023-05-04T11:06:24.381Z,47.19
2023-05-04T11:09:02.381Z,47.23
2023-05-04T11:11:28.900Z,46.04
2023-05-04T11:13:56.550Z,47.14
2023-05-04T11:16:24.814Z,45.18
2023-05-04T11:18:51.504Z,44.67
2023-05-04T11:21:25.709Z,46.26
2023-05-04T11:23:59.264Z,45.68
2023-05-04T11:26:26.540Z,43.40
2023-05-04T11:28:53.001Z,40.70
2023-05-04T11:31:21.354Z,43.22
2023-05-04T11:33:52.261Z,45.94
2023-05-04T11:36:19.916Z,44.00
2023-05-04T11:38:47.229Z,42.58
2023-05-04T11:41:13.708Z,42.04
2023-05-04T11:43:42.788Z,42.73
2023-05-04T11:46:10.282Z,43.40
2023-05-04T11:48:38.659Z,44.22
2023-05-04T11:51:06.411Z,42.25
2023-05-04T11:53:38.356Z,41.90
2023-05-04T11:56:05.931Z,41.88
2023-05-04T11:58:32.388Z,43.48
2023-05-04T12:00:59.070Z,40.66
2023-05-04T12:03:43.920Z,39.70
2023-05-04T12:06:18.284Z,39.23
2023-05-04T12:08:44.740Z,40.09
2023-05-04T12:11:16.277Z,38.55
2023-05-04T12:13:45.317Z,39.00
2023-05-04T12:16:13.271Z,39.04
2023-05-04T12:18:40.357Z,41.60
2023-05-04T12:21:13.292Z,38.14
2023-05-04T12:23:41.536Z,38.59
2023-05-04T12:26:09.735Z,37.30
2023-05-04T12:28:37.362Z,37.98
2023-05-04T12:31:07.370Z,37.50
2023-05-04T12:33:34.750Z,36.96
2023-05-04T12:36:02.565Z,35.72
2023-05-04T12:38:29.487Z,38.08
2023-05-04T12:40:58.782Z,36.58
2023-05-04T12:43:25.267Z,36.38
2023-05-04T12:45:52.663Z,35.27
2023-05-04T12:48:20.860Z,38.80
2023-05-04T12:50:49.045Z,36.39
2023-05-04T12:53:16.069Z,38.07
2023-05-04T12:55:42.826Z,34.17
2023-05-04T12:58:09.359Z,34.54
2023-05-04T13:00:37.697Z,31.45
2023-05-04T13:03:05.304Z,33.20
2023-05-04T13:05:31.826Z,34.54
2023-05-04T13:07:58.335Z,31.99
2023-05-04T13:10:25.013Z,29.39
2023-05-04T13:12:51.807Z,25.51
2023-05-04T13:15:18.456Z,20.49
2023-05-04T13:17:45.090Z,19.78
2023-05-04T13:20:12.513Z,18.83
2023-05-04T13:22:39.905Z,18.48
2023-05-04T13:25:07.679Z,17.81
2023-05-04T13:27:34.822Z,17.45
2023-05-04T13:30:03.371Z,18.51
2023-05-04T13:32:30.867Z,19.89
2023-05-04T13:34:57.533Z,18.48
2023-05-04T13:37:26.381Z,17.32
2023-05-04T13:39:52.823Z,17.14
2023-05-04T13:42:19.221Z,16.59
2023-05-04T13:44:45.673Z,16.00
2023-05-04T13:47:13.168Z,14.73
2023-05-04T13:49:39.717Z,14.82
2023-05-04T13:52:06.423Z,15.12
2023-05-04T13:54:33.175Z,15.03
2023-05-04T13:57:00.486Z,15.72
2023-05-04T13:59:28.027Z,15.31
2023-05-04T14:01:54.574Z,16.33
2023-05-04T14:04:21.086Z,16.26
2023-05-04T14:06:51.178Z,16.97
2023-05-04T14:09:18.426Z,18.69
2023-05-04T14:11:46.395Z,20.16
2023-05-04T14:14:12.853Z,19.95
2023-05-04T14:16:39.955Z,18.41
2023-05-04T14:19:06.479Z,18.33
2023-05-04T14:21:33.000Z,18.38
2023-05-04T14:23:59.489Z,19.72
2023-05-04T14:26:26.206Z,18.70
2023-05-04T14:28:52.670Z,18.72
2023-05-04T14:31:19.175Z,18.50
2023-05-04T14:33:45.684Z,18.61
2023-05-04T14:36:12.175Z,17.43
2023-05-04T14:38:38.642Z,17.75
2023-05-04T14:41:07.175Z,16.89
2023-05-04T14:43:34.114Z,17.57
2023-05-04T14:46:01.334Z,20.30
2023-05-04T14:48:28.148Z,21.08
2023-05-04T14:50:55.067Z,22.77
2023-05-04T14:53:21.874Z,25.36
2023-05-04T14:55:48.668Z,25.62
2023-05-04T14:58:15.840Z,24.89
2023-05-04T15:00:42.265Z,24.84
2023-05-04T15:03:09.344Z,26.67
2023-05-04T15:05:35.955Z,27.48
2023-05-04T15:08:02.591Z,27.31
2023-05-04T15:10:29.065Z,27.41
2023-05-04T15:12:55.881Z,28.92
2023-05-04T15:15:22.320Z,28.51
2023-05-04T15:17:49.755Z,29.18
2023-05-04T15:20:16.980Z,29.07
2023-05-04T15:22:47.194Z,29.35
2023-05-04T15:25:13.616Z,31.19
2023-05-04T15:27:40.786Z,31.14
2023-05-04T15:30:08.923Z,30.41
2023-05-04T15:32:35.594Z,29.61
2023-05-04T15:35:05.926Z,28.58
2023-05-04T15:37:32.994Z,26.91
2023-05-04T15:40:01.963Z,27.75
2023-05-04T15:42:29.016Z,28.12
2023-05-04T15:44:55.581Z,26.95
2023-05-04T15:49:48.453Z,25.56
2023-05-04T15:52:14.872Z,23.46
2023-05-04T15:54:41.370Z,23.68
2023-05-04T15:57:07.839Z,21.26
2023-05-04T15:59:34.228Z,21.80
2023-05-04T16:02:00.746Z,22.20
2023-05-04T16:04:27.837Z,21.44
2023-05-04T16:06:54.290Z,21.28
2023-05-04T16:09:20.926Z,20.19
2023-05-04T16:11:47.391Z,21.15
2023-05-04T16:14:14.294Z,20.14
2023-05-04T16:16:41.427Z,21.85
2023-05-04T16:19:10.115Z,22.38
2023-05-04T16:21:37.916Z,22.82
2023-05-04T16:24:04.731Z,22.09
2023-05-04T16:26:31.132Z,21.74
2023-05-04T16:28:57.597Z,21.47
2023-05-04T16:31:24.016Z,21.21
2023-05-04T16:33:50.563Z,20.21
2023-05-04T16:36:17.046Z,19.87
2023-05-04T16:38:43.508Z,18.69
2023-05-04T16:41:09.983Z,19.10
2023-05-04T16:43:36.438Z,18.19
2023-05-04T16:46:03.026Z,17.90
2023-05-04T16:48:29.517Z,18.52
2023-05-04T16:50:55.952Z,18.28
2023-05-04T16:53:22.498Z,18.87
2023-05-04T16:55:50.786Z,19.03
2023-05-04T16:58:17.567Z,18.31
2023-05-04T17:00:44.133Z,18.76
2023-05-04T17:03:10.664Z,18.86
2023-05-04T17:05:37.177Z,18.26
2023-05-04T17:08:03.704Z,18.25
2023-05-04T17:10:30.173Z,17.94
2023-05-04T17:12:56.756Z,19.48
2023-05-04T17:15:23.402Z,22.17
2023-05-04T17:17:49.884Z,23.81
2023-05-04T17:20:16.425Z,24.30
2023-05-04T17:22:43.802Z,25.91
2023-05-04T17:25:11.371Z,27.09
2023-05-04T17:27:37.853Z,26.77
2023-05-04T17:30:05.160Z,27.67
2023-05-04T17:32:31.808Z,27.99
2023-05-04T17:35:01.259Z,29.01
2023-05-04T17:37:32.058Z,30.42
2023-05-04T17:39:58.493Z,30.60
2023-05-04T17:42:25.008Z,30.26
2023-05-04T17:44:51.460Z,31.41
2023-05-04T17:47:17.852Z,30.92
2023-05-04T17:49:44.274Z,32.57
2023-05-04T17:52:12.029Z,33.25
2023-05-04T17:54:40.114Z,33.88
2023-05-04T17:57:07.116Z,34.38
2023-05-04T17:59:33.528Z,35.06
2023-05-04T18:02:00.078Z,35.44
2023-05-04T18:04:26.793Z,36.24
2023-05-04T18:06:53.252Z,37.41
2023-05-04T18:09:19.713Z,36.67
2023-05-04T18:11:46.840Z,37.75
2023-05-04T18:14:13.353Z,38.98
2023-05-04T18:16:39.906Z,39.84
2023-05-04T18:19:06.523Z,40.33
2023-05-04T18:21:38.963Z,39.87
2023-05-04T18:24:05.796Z,41.04
2023-05-04T18:26:32.289Z,41.85
2023-05-04T18:29:07.476Z,42.07
2023-05-04T18:31:38.016Z,43.35
2023-05-04T18:34:05.832Z,43.64
2023-05-04T18:36:32.631Z,44.26
2023-05-04T18:39:00.491Z,44.09
2023-05-04T18:41:28.253Z,44.14
2023-05-04T18:43:57.337Z,45.37
2023-05-04T18:46:23.815Z,45.61
2023-05-04T18:48:50.470Z,45.78
2023-05-04T18:51:16.903Z,45.93
2023-05-04T18:53:43.335Z,46.16
2023-05-04T18:56:10.651Z,46.28
2023-05-04T18:58:38.006Z,46.63
2023-05-04T19:01:05.817Z,46.87
2023-05-04T19:03:32.837Z,47.11
2023-05-04T19:05:59.464Z,48.01
2023-05-04T19:08:26.352Z,47.71
2023-05-04T19:10:57.402Z,47.88
2023-05-04T19:13:23.928Z,48.04
2023-05-04T19:15:50.720Z,48.64
2023-05-04T19:18:17.366Z,49.15
2023-05-04T19:20:44.038Z,49.65
2023-05-04T19:23:10.557Z,50.62
2023-05-04T19:25:37.179Z,50.84
2023-05-04T19:28:08.537Z,50.60
2023-05-04T19:30:38.943Z,51.26
2023-05-04T19:33:06.646Z,51.00
2023-05-04T19:35:33.423Z,51.35
2023-05-04T19:38:01.578Z,50.25
2023-05-04T19:40:28.132Z,51.15
2023-05-04T19:42:54.570Z,51.25
2023-05-04T19:45:21.007Z,51.54
2023-05-04T19:47:48.378Z,51.84
2023-05-04T19:50:16.354Z,52.25
2023-05-04T19:52:42.824Z,53.62
2023-05-04T19:55:09.766Z,54.14
2023-05-04T19:57:36.564Z,53.83
2023-05-04T20:00:03.518Z,53.86
2023-05-04T20:02:38.272Z,54.15
2023-05-04T20:05:08.193Z,54.35
2023-05-04T20:07:35.036Z,54.54
2023-05-04T20:10:01.612Z,54.62
2023-05-04T20:12:28.081Z,54.42
2023-05-04T20:14:54.507Z,54.84
2023-05-04T20:17:21.005Z,54.75
2023-05-04T20:19:48.169Z,54.87
2023-05-04T20:22:14.992Z,55.27
2023-05-04T20:24:41.567Z,55.56
2023-05-04T20:27:08.413Z,55.43
2023-05-04T20:29:34.895Z,55.73
2023-05-04T20:32:02.860Z,56.32
2023-05-04T20:34:29.359Z,56.34
2023-05-04T20:36:56.331Z,56.27
2023-05-04T20:39:23.077Z,56.88
2023-05-04T20:41:49.798Z,57.72
2023-05-04T20:44:17.069Z,58.14
2023-05-04T20:46:45.148Z,58.32
2023-05-04T20:49:12.358Z,58.41
2023-05-04T20:51:38.818Z,58.54
2023-05-04T20:54:05.308Z,58.16
2023-05-04T20:56:31.885Z,58.21
2023-05-04T20:58:58.347Z,58.25
2023-05-04T21:01:24.860Z,57.59
2023-05-04T21:03:51.411Z,58.48
2023-05-04T21:06:17.918Z,58.52
2023-05-04T21:08:44.350Z,58.36
2023-05-04T21:11:10.785Z,58.16
2023-05-04T21:13:37.239Z,58.65
2023-05-04T21:16:03.890Z,58.40
2023-05-04T21:18:30.419Z,57.75
2023-05-04T21:20:56.887Z,58.61
2023-05-04T21:23:24.899Z,58.50
2023-05-04T21:26:00.213Z,58.42
2023-05-04T21:28:26.622Z,58.64
2023-05-04T21:30:53.039Z,58.49
2023-05-04T21:33:19.475Z,58.78
2023-05-04T21:35:45.998Z,58.47
2023-05-04T21:38:12.871Z,58.55
2023-05-04T21:40:39.411Z,59.01
2023-05-04T21:43:06.052Z,59.39
2023-05-04T21:45:33.264Z,59.98
2023-05-04T21:48:02.255Z,59.76
2023-05-04T21:50:28.829Z,60.22
2023-05-04T21:52:55.242Z,60.41
2023-05-04T21:55:21.668Z,60.82
2023-05-04T21:57:48.063Z,60.77
2023-05-04T22:00:17.623Z,61.01
2023-05-04T22:02:44.928Z,61.53
2023-05-04T22:05:11.545Z,60.60
2023-05-04T22:07:38.024Z,60.88
2023-05-04T22:10:04.846Z,61.47
2023-05-04T22:12:31.323Z,61.89
2023-05-04T22:14:57.895Z,61.92
2023-05-04T22:17:24.322Z,61.74
2023-05-04T22:19:50.739Z,62.02
2023-05-04T22:22:17.130Z,61.58
2023-05-04T22:24:43.536Z,62.36
2023-05-04T22:27:10.107Z,62.79
2023-05-04T22:29:36.580Z,62.52
2023-05-04T22:32:03.140Z,62.32
2023-05-04T22:34:29.628Z,61.90
2023-05-04T22:36:56.077Z,62.82
2023-05-04T22:39:22.537Z,62.69
2023-05-04T22:41:48.934Z,62.68
2023-05-04T22:44:15.385Z,62.78
2023-05-04T22:46:41.839Z,62.81
2023-05-04T22:49:08.251Z,62.05
2023-05-04T22:51:34.745Z,62.17
2023-05-04T22:54:01.264Z,62.52
2023-05-04T22:56:27.696Z,62.38
2023-05-04T22:58:54.159Z,62.86
2023-05-04T23:01:20.675Z,62.72
2023-05-04T23:03:47.225Z,63.04
2023-05-04T23:06:13.715Z,63.43
2023-05-04T23:08:40.137Z,63.73
2023-05-04T23:11:06.578Z,64.17
2023-05-04T23:13:34.061Z,64.22
2023-05-04T23:16:00.532Z,63.84
2023-05-04T23:18:26.993Z,64.02
2023-05-04T23:20:53.446Z,64.23
2023-05-04T23:23:19.860Z,63.91
2023-05-04T23:25:46.349Z,63.85
2023-05-04T23:28:12.829Z,63.81
2023-05-04T23:30:39.243Z,63.87
2023-05-04T23:33:05.968Z,64.00
2023-05-04T23:35:32.642Z,64.16
2023-05-04T23:37:59.076Z,64.21
2023-05-04T23:40:25.498Z,64.03
2023-05-04T23:42:51.917Z,64.13
2023-05-04T23:45:18.375Z,64.31
2023-05-04T23:47:44.834Z,64.38
2023-05-04T23:50:11.618Z,64.33
2023-05-04T23:52:38.191Z,64.47
2023-05-04T23:55:05.163Z,64.50
2023-05-04T23:57:31.631Z,64.94
2023-05-04T23:59:58.045Z,64.75
